createdAt,value
2023-10-24T00:01:17.574Z,97080.47
2023-10-24T00:03:48.330Z,97085.28
2023-10-24T00:06:19.445Z,97083.53
2023-10-24T00:08:50.841Z,97071.69
2023-10-24T00:11:21.541Z,97073.97
2023-10-24T00:13:56.860Z,97070.91
2023-10-24T00:16:27.710Z,97080.81
2023-10-24T00:18:58.164Z,97063.56
2023-10-24T00:21:28.954Z,97073.00
2023-10-24T00:23:59.687Z,97068.63
2023-10-24T00:26:30.367Z,97071.72
2023-10-24T00:29:03.739Z,97063.56
2023-10-24T00:31:34.496Z,97082.81
2023-10-24T00:34:05.220Z,97085.63
2023-10-24T00:36:37.326Z,97082.81
2023-10-24T00:39:09.748Z,97083.09
2023-10-24T00:41:40.442Z,97072.19
2023-10-24T00:44:14.874Z,97076.25
2023-10-24T00:46:46.696Z,97082.59
2023-10-24T00:49:17.711Z,97079.78
2023-10-24T00:51:48.467Z,97083.56
2023-10-24T00:54:19.179Z,97073.91
2023-10-24T00:56:51.440Z,97060.75
2023-10-24T00:59:27.651Z,97037.91
2023-10-24T01:01:58.851Z,97029.09
2023-10-24T01:04:30.012Z,97030.34
2023-10-24T01:07:04.063Z,97040.75
2023-10-24T01:09:34.804Z,97027.56
2023-10-24T01:12:06.436Z,97021.00
2023-10-24T01:14:40.318Z,97020.78
2023-10-24T01:17:14.993Z,97031.16
2023-10-24T01:19:45.687Z,97023.03
2023-10-24T01:22:19.005Z,97035.47
2023-10-24T01:24:51.756Z,97038.25
2023-10-24T01:27:24.774Z,97046.63
2023-10-24T01:29:55.447Z,97051.78
2023-10-24T01:32:34.283Z,97055.28
2023-10-24T01:35:05.248Z,97039.34
2023-10-24T01:37:39.017Z,97028.91
2023-10-24T01:40:12.475Z,97022.28
2023-10-24T01:42:43.152Z,97026.09
2023-10-24T01:45:16.977Z,97014.94
2023-10-24T01:47:47.991Z,97014.19
2023-10-24T01:50:18.657Z,97008.41
2023-10-24T01:52:54.180Z,97001.84
2023-10-24T01:55:25.035Z,96996.59
2023-10-24T01:57:55.441Z,97000.78
2023-10-24T02:00:26.409Z,97004.63
2023-10-24T02:03:00.086Z,97001.53
2023-10-24T02:05:31.155Z,96993.94
2023-10-24T02:08:05.905Z,96984.59
2023-10-24T02:10:37.006Z,96984.63
2023-10-24T02:13:07.827Z,96981.88
2023-10-24T02:15:40.811Z,96975.31
2023-10-24T02:18:11.737Z,96989.75
2023-10-24T02:20:42.624Z,96986.72
2023-10-24T02:23:15.650Z,96991.56
2023-10-24T02:25:48.120Z,96999.69
2023-10-24T02:28:19.530Z,97009.59
2023-10-24T02:30:52.168Z,97026.53
2023-10-24T02:33:23.927Z,97023.75
2023-10-24T02:35:56.593Z,97021.97
2023-10-24T02:38:29.980Z,97016.91
2023-10-24T02:41:00.819Z,97016.91
2023-10-24T02:43:31.856Z,97016.44
2023-10-24T02:46:07.297Z,97020.22
2023-10-24T02:48:38.334Z,97019.47
2023-10-24T02:51:09.095Z,97025.31
2023-10-24T02:53:42.410Z,97026.66
2023-10-24T02:56:13.051Z,97030.53
2023-10-24T02:58:44.061Z,97023.91
2023-10-24T03:01:15.379Z,97022.28
2023-10-24T03:03:45.997Z,97027.91
2023-10-24T03:06:19.204Z,97014.25
2023-10-24T03:08:52.982Z,97002.38
2023-10-24T03:11:28.361Z,97000.59
2023-10-24T03:13:59.654Z,97003.13
2023-10-24T03:16:31.919Z,96999.53
2023-10-24T03:19:03.664Z,96993.22
2023-10-24T03:21:34.374Z,96983.63
2023-10-24T03:24:09.499Z,96978.59
2023-10-24T03:26:40.397Z,96978.59
2023-10-24T03:29:10.901Z,96982.66
2023-10-24T03:31:41.543Z,96985.94
2023-10-24T03:34:12.454Z,96981.63
2023-10-24T03:36:42.799Z,96975.31
2023-10-24T03:39:16.094Z,96968.97
2023-10-24T03:41:46.810Z,96981.13
2023-10-24T03:44:17.517Z,96974.56
2023-10-24T03:46:48.481Z,96960.63
2023-10-24T03:49:19.481Z,96955.06
2023-10-24T03:51:50.428Z,96946.19
2023-10-24T03:54:23.886Z,96954.03
2023-10-24T03:56:54.507Z,96965.66
2023-10-24T03:59:25.157Z,96964.84
2023-10-24T04:01:55.817Z,96950.91
2023-10-24T04:04:26.512Z,96933.91
2023-10-24T04:06:57.241Z,96938.91
2023-10-24T04:09:38.536Z,96940.69
2023-10-24T04:12:10.767Z,96944.25
2023-10-24T04:14:41.594Z,96952.88
2023-10-24T04:17:12.249Z,96938.50
2023-10-24T04:19:42.830Z,96928.63
2023-10-24T04:22:13.706Z,96916.97
2023-10-24T04:24:47.112Z,96926.09
2023-10-24T04:27:18.012Z,96920.47
2023-10-24T04:29:48.930Z,96919.97
2023-10-24T04:32:19.320Z,96925.06
2023-10-24T04:34:52.897Z,96926.84
2023-10-24T04:37:23.708Z,96919.03
2023-10-24T04:39:57.931Z,96907.66
2023-10-24T04:42:28.776Z,96909.41
2023-10-24T04:44:59.848Z,96907.59
2023-10-24T04:47:30.446Z,96914.13
2023-10-24T04:50:01.268Z,96908.06
2023-10-24T04:52:32.092Z,96893.59
2023-10-24T04:55:06.422Z,96880.16
2023-10-24T04:57:36.990Z,96881.63
2023-10-24T05:00:12.614Z,96888.22
2023-10-24T05:02:43.628Z,96900.56
2023-10-24T05:05:14.839Z,96909.38
2023-10-24T05:07:45.824Z,96913.88
2023-10-24T05:10:19.046Z,96919.72
2023-10-24T05:12:49.762Z,96912.16
2023-10-24T05:15:20.537Z,96914.91
2023-10-24T05:17:51.515Z,96916.38
2023-10-24T05:20:22.383Z,96903.91
2023-10-24T05:22:54.072Z,96907.59
2023-10-24T05:25:27.485Z,96910.00
2023-10-24T05:27:58.082Z,96918.66
2023-10-24T05:30:28.876Z,96913.66
2023-10-24T05:32:59.944Z,96924.28
2023-10-24T05:35:30.723Z,96927.13
2023-10-24T05:38:01.472Z,96911.44
2023-10-24T05:40:34.751Z,96911.72
2023-10-24T05:43:06.189Z,96909.13
2023-10-24T05:45:37.700Z,96919.97
2023-10-24T05:48:09.206Z,96915.88
2023-10-24T05:50:40.489Z,96915.75
2023-10-24T05:53:11.107Z,96915.44
2023-10-24T05:55:44.881Z,96918.91
2023-10-24T05:58:20.587Z,96916.56
2023-10-24T06:00:51.418Z,96911.22
2023-10-24T06:03:23.037Z,96906.91
2023-10-24T06:05:54.312Z,96910.66
2023-10-24T06:08:25.135Z,96904.31
2023-10-24T06:11:03.780Z,96903.47
2023-10-24T06:13:35.766Z,96896.84
2023-10-24T06:16:13.431Z,96894.28
2023-10-24T06:18:44.765Z,96891.97
2023-10-24T06:21:16.768Z,96885.09
2023-10-24T06:23:47.486Z,96890.09
2023-10-24T06:26:22.029Z,96898.63
2023-10-24T06:28:52.941Z,96891.22
2023-10-24T06:31:23.888Z,96884.81
2023-10-24T06:33:54.558Z,96882.50
2023-10-24T06:36:25.365Z,96881.66
2023-10-24T06:38:56.127Z,96884.91
2023-10-24T06:41:29.434Z,96875.50
2023-10-24T06:44:00.180Z,96881.50
2023-10-24T06:46:30.878Z,96879.47
2023-10-24T06:49:01.539Z,96873.59
2023-10-24T06:51:33.138Z,96870.50
2023-10-24T06:54:04.018Z,96859.78
2023-10-24T06:56:37.949Z,96854.94
2023-10-24T06:59:08.845Z,96846.78
2023-10-24T07:01:39.569Z,96835.00
2023-10-24T07:04:10.876Z,96831.91
2023-10-24T07:06:41.563Z,96826.44
2023-10-24T07:09:12.122Z,96825.16
2023-10-24T07:11:45.301Z,96817.25
2023-10-24T07:14:16.126Z,96812.78
2023-10-24T07:16:46.767Z,96812.59
2023-10-24T07:19:17.997Z,96813.69
2023-10-24T07:21:49.288Z,96811.13
2023-10-24T07:24:20.106Z,96816.16
2023-10-24T07:26:53.398Z,96811.22
2023-10-24T07:29:24.608Z,96810.69
2023-10-24T07:31:55.355Z,96801.88
2023-10-24T07:34:26.835Z,96799.53
2023-10-24T07:36:57.746Z,96800.91
2023-10-24T07:39:28.164Z,96806.41
2023-10-24T07:42:01.382Z,96796.91
2023-10-24T07:44:31.940Z,96795.34
2023-10-24T07:47:02.762Z,96801.69
2023-10-24T07:49:33.118Z,96803.47
2023-10-24T07:52:05.504Z,96801.25
2023-10-24T07:54:36.203Z,96792.16
2023-10-24T07:57:11.259Z,96777.41
2023-10-24T07:59:41.968Z,96775.63
2023-10-24T08:02:12.318Z,96792.50
2023-10-24T08:04:43.159Z,96788.53
2023-10-24T08:07:14.444Z,96791.25
2023-10-24T08:09:45.032Z,96781.00
2023-10-24T08:12:18.565Z,96785.28
2023-10-24T08:14:49.286Z,96775.19
2023-10-24T08:17:20.162Z,96774.22
2023-10-24T08:19:53.815Z,96771.34
2023-10-24T08:22:24.668Z,96790.75
2023-10-24T08:24:55.424Z,96782.97
2023-10-24T08:27:28.681Z,96787.56
2023-10-24T08:29:59.344Z,96795.03
2023-10-24T08:32:30.829Z,96784.31
2023-10-24T08:35:01.610Z,96800.34
2023-10-24T08:37:32.179Z,96796.66
2023-10-24T08:40:02.867Z,96797.31
2023-10-24T08:42:38.043Z,96798.16
2023-10-24T08:45:11.690Z,96803.81
2023-10-24T08:47:42.956Z,96795.06
2023-10-24T08:50:14.303Z,96803.47
2023-10-24T08:52:45.028Z,96794.22
2023-10-24T08:55:15.764Z,96802.00
2023-10-24T08:57:51.195Z,96802.81
2023-10-24T09:00:22.031Z,96803.19
2023-10-24T09:02:52.371Z,96812.72
2023-10-24T09:05:23.713Z,96821.94
2023-10-24T09:07:54.437Z,96821.94
2023-10-24T09:10:25.086Z,96831.47
2023-10-24T09:12:58.791Z,96838.75
2023-10-24T09:15:29.832Z,96846.44
2023-10-24T09:18:00.591Z,96823.03
2023-10-24T09:20:34.001Z,96818.03
2023-10-24T09:23:09.082Z,96806.91
2023-10-24T09:25:41.120Z,96799.72
2023-10-24T09:28:24.893Z,96779.38
2023-10-24T09:30:55.639Z,96782.56
2023-10-24T09:33:28.546Z,96788.38
2023-10-24T09:36:13.411Z,96793.28
2023-10-24T09:38:47.352Z,96783.34
2023-10-24T09:41:18.801Z,96788.81
2023-10-24T09:43:53.162Z,96791.38
2023-10-24T09:46:25.465Z,96784.78
2023-10-24T09:48:58.765Z,96780.19
2023-10-24T09:51:30.026Z,96771.56
2023-10-24T09:54:01.057Z,96757.91
2023-10-24T09:56:32.396Z,96742.66
2023-10-24T09:59:07.243Z,96732.78
2023-10-24T10:01:39.044Z,96727.94
2023-10-24T10:04:11.308Z,96724.75
2023-10-24T10:06:58.362Z,96722.31
2023-10-24T10:09:30.159Z,96722.84
2023-10-24T10:12:02.549Z,96719.06
2023-10-24T10:14:53.318Z,96725.41
2023-10-24T10:17:37.601Z,96724.38
2023-10-24T10:20:39.777Z,96731.69
2023-10-24T10:23:30.341Z,96731.44
2023-10-24T10:26:08.525Z,96742.09
2023-10-24T10:29:11.976Z,96744.16
2023-10-24T10:32:39.713Z,96745.03
2023-10-24T10:35:00.698Z,96759.81
2023-10-24T10:37:37.710Z,96769.56
2023-10-24T10:40:29.463Z,96775.44
2023-10-24T10:43:03.824Z,96750.72
2023-10-24T10:45:36.039Z,96758.50
2023-10-24T10:48:10.080Z,96752.44
2023-10-24T10:50:40.860Z,96756.03
2023-10-24T10:53:24.943Z,96760.13
2023-10-24T10:56:22.076Z,96751.34
2023-10-24T10:59:23.425Z,96734.31
2023-10-24T11:02:22.719Z,96738.75
2023-10-24T11:04:56.777Z,96717.66
2023-10-24T11:07:57.995Z,96718.72
2023-10-24T11:10:29.000Z,96704.53
2023-10-24T11:12:59.893Z,96704.53
2023-10-24T11:15:32.170Z,96705.47
2023-10-24T11:18:03.501Z,96702.66
2023-10-24T11:20:39.353Z,96698.38
2023-10-24T11:23:12.588Z,96703.78
2023-10-24T11:25:43.742Z,96699.25
2023-10-24T11:28:14.936Z,96698.63
2023-10-24T11:30:45.913Z,96705.06
2023-10-24T11:33:16.722Z,96697.88
2023-10-24T11:35:49.721Z,96692.91
2023-10-24T11:38:20.888Z,96696.25
2023-10-24T11:40:51.687Z,96691.00
2023-10-24T11:43:22.073Z,96694.84
2023-10-24T11:45:52.741Z,96688.66
2023-10-24T11:48:23.236Z,96691.69
2023-10-24T11:50:56.773Z,96695.03
2023-10-24T11:53:28.410Z,96697.63
2023-10-24T11:55:59.835Z,96693.94
2023-10-24T11:58:39.959Z,96698.66
2023-10-24T12:01:10.689Z,96694.69
2023-10-24T12:03:50.461Z,96688.53
2023-10-24T12:06:24.149Z,96687.59
2023-10-24T12:08:54.826Z,96686.50
2023-10-24T12:11:26.846Z,96691.19
2023-10-24T12:13:57.720Z,96682.25
2023-10-24T12:16:47.142Z,96665.81
2023-10-24T12:19:22.803Z,96664.50
2023-10-24T12:21:56.315Z,96657.81
2023-10-24T12:24:27.434Z,96652.94
2023-10-24T12:26:58.545Z,96650.69
2023-10-24T12:29:29.380Z,96649.03
2023-10-24T12:31:59.794Z,96644.94
2023-10-24T12:34:30.912Z,96638.41
2023-10-24T12:37:04.970Z,96639.00
2023-10-24T12:39:35.688Z,96650.41
2023-10-24T12:42:06.203Z,96653.41
2023-10-24T12:44:37.093Z,96645.22
2023-10-24T12:47:07.752Z,96646.38
2023-10-24T12:49:38.504Z,96639.53
2023-10-24T12:52:12.471Z,96638.22
2023-10-24T12:54:43.193Z,96633.38
2023-10-24T12:57:13.926Z,96621.84
2023-10-24T12:59:44.337Z,96634.50
2023-10-24T13:02:15.241Z,96620.28
2023-10-24T13:04:46.340Z,96622.13
2023-10-24T13:07:19.640Z,96613.16
2023-10-24T13:09:50.434Z,96610.69
2023-10-24T13:12:21.381Z,96607.47
2023-10-24T13:14:52.287Z,96602.84
2023-10-24T13:17:23.333Z,96602.09
2023-10-24T13:19:54.820Z,96599.84
2023-10-24T13:22:28.462Z,96595.63
2023-10-24T13:24:59.356Z,96594.44
2023-10-24T13:27:29.709Z,96588.44
2023-10-24T13:30:03.230Z,96584.50
2023-10-24T13:32:35.958Z,96581.50
2023-10-24T13:37:43.331Z,96585.34
2023-10-24T13:40:15.170Z,96595.19
2023-10-24T13:42:45.935Z,96597.19
2023-10-24T13:45:16.714Z,96594.91
2023-10-24T13:47:47.030Z,96598.44
2023-10-24T13:50:17.939Z,96592.22
2023-10-24T13:52:52.665Z,96592.22
2023-10-24T13:55:23.445Z,96585.06
2023-10-24T13:57:54.160Z,96574.06
2023-10-24T14:00:25.319Z,96576.13
2023-10-24T14:02:56.181Z,96577.63
2023-10-24T14:05:27.031Z,96575.00
2023-10-24T14:08:00.176Z,96585.06
2023-10-24T14:10:30.777Z,96604.44
2023-10-24T14:13:01.448Z,96597.34
2023-10-24T14:15:31.924Z,96593.59
2023-10-24T14:18:02.836Z,96595.41
2023-10-24T14:20:34.841Z,96589.63
2023-10-24T14:23:08.226Z,96595.03
2023-10-24T14:25:39.277Z,96607.50
2023-10-24T14:28:09.965Z,96605.19
2023-10-24T14:30:40.861Z,96613.19
2023-10-24T14:33:11.549Z,96606.63
2023-10-24T14:35:42.587Z,96597.81
2023-10-24T14:38:15.948Z,96598.69
2023-10-24T14:40:46.689Z,96602.97
2023-10-24T14:43:17.244Z,96595.06
2023-10-24T14:45:47.931Z,96597.69
2023-10-24T14:48:18.676Z,96593.19
2023-10-24T14:50:49.402Z,96584.03
2023-10-24T14:53:22.694Z,96573.97
2023-10-24T14:55:53.374Z,96576.53
2023-10-24T14:58:24.485Z,96586.47
2023-10-24T15:00:57.178Z,96593.56
2023-10-24T15:03:28.100Z,96588.19
2023-10-24T15:05:58.623Z,96610.44
2023-10-24T15:08:32.177Z,96604.97
2023-10-24T15:11:03.103Z,96607.03
2023-10-24T15:13:33.932Z,96600.47
2023-10-24T15:16:04.343Z,96605.94
2023-10-24T15:18:37.721Z,96602.44
2023-10-24T15:21:08.996Z,96588.03
2023-10-24T15:23:44.319Z,96590.59
2023-10-24T15:26:15.101Z,96586.00
2023-10-24T15:28:45.467Z,96571.72
2023-10-24T15:31:16.120Z,96567.41
2023-10-24T15:33:46.831Z,96555.19
2023-10-24T15:36:17.554Z,96562.38
2023-10-24T15:38:50.879Z,96562.38
2023-10-24T15:41:21.573Z,96562.38
2023-10-24T15:44:06.512Z,96567.97
2023-10-24T15:46:40.808Z,96566.66
2023-10-24T15:49:11.497Z,96569.47
2023-10-24T15:51:45.609Z,96565.91
2023-10-24T15:54:18.997Z,96565.91
2023-10-24T15:56:49.698Z,96571.06
2023-10-24T15:59:20.721Z,96576.88
2023-10-24T16:01:51.616Z,96580.53
2023-10-24T16:04:22.007Z,96579.19
2023-10-24T16:06:52.408Z,96577.91
2023-10-24T16:09:25.374Z,96564.72
2023-10-24T16:11:56.061Z,96562.38
2023-10-24T16:14:26.490Z,96566.03
2023-10-24T16:16:56.883Z,96556.91
2023-10-24T16:19:27.351Z,96560.97
2023-10-24T16:21:57.659Z,96564.63
2023-10-24T16:24:30.947Z,96558.59
2023-10-24T16:27:02.267Z,96559.34
2023-10-24T16:29:32.770Z,96556.91
2023-10-24T16:32:03.129Z,96559.69
2023-10-24T16:34:33.633Z,96562.38
2023-10-24T16:37:04.711Z,96559.91
2023-10-24T16:39:37.921Z,96553.69
2023-10-24T16:42:09.139Z,96556.25
2023-10-24T16:44:39.628Z,96551.66
2023-10-24T16:47:10.378Z,96541.75
2023-10-24T16:49:40.765Z,96553.34
2023-10-24T16:52:11.116Z,96549.56
2023-10-24T16:54:45.578Z,96544.00
2023-10-24T16:57:15.917Z,96538.09
2023-10-24T16:59:46.439Z,96543.69
2023-10-24T17:02:16.926Z,96537.56
2023-10-24T17:04:47.343Z,96548.75
2023-10-24T17:07:17.707Z,96544.44
2023-10-24T17:09:50.871Z,96543.16
2023-10-24T17:12:21.311Z,96544.44
2023-10-24T17:14:54.776Z,96539.06
2023-10-24T17:17:25.235Z,96546.72
2023-10-24T17:19:55.725Z,96545.94
2023-10-24T17:22:31.389Z,96538.34
2023-10-24T17:25:05.338Z,96538.53
2023-10-24T17:27:35.873Z,96540.38
2023-10-24T17:30:06.600Z,96534.22
2023-10-24T17:32:38.066Z,96530.69
2023-10-24T17:35:08.840Z,96522.13
2023-10-24T17:37:39.499Z,96524.16
2023-10-24T17:40:13.839Z,96523.63
2023-10-24T17:42:45.605Z,96528.44
2023-10-24T17:45:16.336Z,96525.09
2023-10-24T17:47:46.725Z,96523.63
2023-10-24T17:50:17.196Z,96525.97
2023-10-24T17:52:47.697Z,96526.19
2023-10-24T17:55:20.892Z,96533.28
2023-10-24T17:57:53.649Z,96532.09
2023-10-24T18:00:24.163Z,96527.47
2023-10-24T18:02:54.564Z,96521.88
2023-10-24T18:05:25.163Z,96525.97
2023-10-24T18:07:57.332Z,96516.00
2023-10-24T18:10:30.373Z,96522.13
2023-10-24T18:13:01.053Z,96509.44
2023-10-24T18:15:34.870Z,96512.47
2023-10-24T18:18:09.490Z,96508.34
2023-10-24T18:20:39.934Z,96503.00
2023-10-24T18:23:10.478Z,96496.53
2023-10-24T18:25:45.163Z,96499.13
2023-10-24T18:28:15.495Z,96494.50
2023-10-24T18:30:48.466Z,96495.03
2023-10-24T18:33:19.021Z,96495.72
2023-10-24T18:35:49.693Z,96498.50
2023-10-24T18:38:20.179Z,96505.91
2023-10-24T18:40:58.958Z,96497.31
2023-10-24T18:43:30.638Z,96504.31
2023-10-24T18:46:02.308Z,96506.47
2023-10-24T18:48:35.680Z,96505.81
2023-10-24T18:51:15.795Z,96510.84
2023-10-24T18:53:49.768Z,96512.34
2023-10-24T18:56:27.160Z,96512.44
2023-10-24T18:58:57.888Z,96522.94
2023-10-24T19:01:28.587Z,96521.25
2023-10-24T19:03:59.079Z,96508.25
2023-10-24T19:06:30.097Z,96512.41
2023-10-24T19:09:00.604Z,96502.00
2023-10-24T19:11:35.374Z,96508.16
2023-10-24T19:14:06.773Z,96509.13
2023-10-24T19:16:38.122Z,96505.06
2023-10-24T19:19:09.377Z,96510.09
2023-10-24T19:21:40.556Z,96508.81
2023-10-24T19:24:12.344Z,96517.44
2023-10-24T19:26:49.987Z,96509.59
2023-10-24T19:29:21.046Z,96506.13
2023-10-24T19:31:52.045Z,96507.63
2023-10-24T19:34:23.485Z,96503.34
2023-10-24T19:36:55.740Z,96504.25
2023-10-24T19:39:26.617Z,96506.22
2023-10-24T19:42:00.825Z,96504.19
2023-10-24T19:44:33.882Z,96508.69
2023-10-24T19:47:07.242Z,96499.41
2023-10-24T19:49:38.741Z,96492.56
2023-10-24T19:52:10.477Z,96495.53
2023-10-24T19:54:41.506Z,96493.31
2023-10-24T19:57:15.395Z,96491.94
2023-10-24T19:59:46.423Z,96488.94
2023-10-24T20:02:17.617Z,96494.81
2023-10-24T20:04:51.031Z,96489.53
2023-10-24T20:07:23.232Z,96488.69
2023-10-24T20:11:41.881Z,96485.13
2023-10-24T20:12:48.572Z,96484.50
2023-10-24T20:15:20.735Z,96488.94
2023-10-24T20:17:51.946Z,96496.22
2023-10-24T20:20:23.182Z,96491.47
2023-10-24T20:22:54.512Z,96497.50
2023-10-24T20:25:25.854Z,96494.50
2023-10-24T20:27:59.155Z,96497.16
2023-10-24T20:30:30.144Z,96493.31
2023-10-24T20:33:00.739Z,96503.19
2023-10-24T20:35:31.357Z,96499.50
2023-10-24T20:38:04.294Z,96501.75
2023-10-24T20:40:34.801Z,96497.91
2023-10-24T20:43:07.800Z,96505.22
2023-10-24T20:45:38.359Z,96506.41
2023-10-24T20:48:09.598Z,96508.44
2023-10-24T20:50:42.828Z,96511.66
2023-10-24T20:53:13.259Z,96515.00
2023-10-24T20:55:43.596Z,96527.19
2023-10-24T20:58:16.666Z,96523.72
2023-10-24T21:00:47.044Z,96526.00
2023-10-24T21:03:18.314Z,96522.22
2023-10-24T21:05:48.808Z,96527.78
2023-10-24T21:08:19.232Z,96520.63
2023-10-24T21:10:49.562Z,96520.19
2023-10-24T21:13:22.473Z,96513.94
2023-10-24T21:15:59.171Z,96516.81
2023-10-24T21:18:30.398Z,96524.44
2023-10-24T21:21:00.770Z,96522.63
2023-10-24T21:23:31.145Z,96525.09
2023-10-24T21:26:01.932Z,96523.59
2023-10-24T21:28:34.949Z,96519.59
2023-10-24T21:31:07.148Z,96518.09
2023-10-24T21:33:37.535Z,96519.94
2023-10-24T21:36:08.947Z,96514.97
2023-10-24T21:38:39.501Z,96521.81
2023-10-24T21:41:09.862Z,96511.34
2023-10-24T21:43:42.924Z,96505.38
2023-10-24T21:46:14.908Z,96503.78
2023-10-24T21:48:45.364Z,96510.56
2023-10-24T21:51:15.827Z,96502.94
2023-10-24T21:53:48.297Z,96506.88
2023-10-24T21:56:20.350Z,96503.13
2023-10-24T21:58:53.615Z,96511.56
2023-10-24T22:01:23.911Z,96506.28
2023-10-24T22:03:54.416Z,96503.75
2023-10-24T22:06:24.898Z,96503.41
2023-10-24T22:08:55.142Z,96506.06
2023-10-24T22:11:25.432Z,96507.00
2023-10-24T22:13:58.355Z,96505.50
2023-10-24T22:16:28.793Z,96506.25
2023-10-24T22:18:59.364Z,96506.13
2023-10-24T22:21:29.776Z,96511.25
2023-10-24T22:24:00.164Z,96518.34
2023-10-24T22:26:30.675Z,96518.59
2023-10-24T22:29:04.430Z,96511.44
2023-10-24T22:31:34.784Z,96516.78
2023-10-24T22:34:05.166Z,96516.66
2023-10-24T22:36:35.537Z,96521.88
2023-10-24T22:39:05.950Z,96525.94
2023-10-24T22:41:36.392Z,96527.28
2023-10-24T22:44:09.714Z,96521.63
2023-10-24T22:46:40.124Z,96512.84
2023-10-24T22:49:10.570Z,96516.91
2023-10-24T22:51:41.020Z,96524.38
2023-10-24T22:54:11.436Z,96534.03
2023-10-24T22:56:41.862Z,96532.06
2023-10-24T22:59:14.838Z,96535.28
2023-10-24T23:01:45.299Z,96532.19
2023-10-24T23:04:15.983Z,96531.34
2023-10-24T23:06:46.580Z,96536.41
2023-10-24T23:09:17.030Z,96534.06
2023-10-24T23:11:47.283Z,96538.06
2023-10-24T23:14:20.358Z,96527.69
2023-10-24T23:16:50.789Z,96544.84
2023-10-24T23:19:21.093Z,96532.00
2023-10-24T23:21:51.555Z,96534.56
2023-10-24T23:24:21.950Z,96538.09
2023-10-24T23:26:55.178Z,96528.97
2023-10-24T23:29:28.261Z,96525.69
2023-10-24T23:31:58.571Z,96532.94
2023-10-24T23:34:28.921Z,96529.72
2023-10-24T23:36:59.232Z,96531.66
2023-10-24T23:39:30.366Z,96524.72
2023-10-24T23:42:00.849Z,96530.97
2023-10-24T23:44:33.812Z,96528.84
2023-10-24T23:47:04.110Z,96527.03
2023-10-24T23:49:34.456Z,96527.53
2023-10-24T23:52:04.787Z,96528.75
2023-10-24T23:54:35.562Z,96527.69
2023-10-24T23:57:06.047Z,96524.09
2023-10-24T23:59:38.946Z,96520.34
